createdAt,value
2019-04-16T04:55:36.426Z,41.50
2019-04-16T04:58:07.412Z,40.70
2019-04-16T05:00:40.520Z,41.30
2019-04-16T05:03:12.494Z,40.70
2019-04-16T05:05:45.563Z,40.10
2019-04-16T05:08:16.256Z,39.70
2019-04-16T05:10:58.391Z,40.30
2019-04-16T05:13:23.925Z,40.50
2019-04-16T05:15:51.569Z,40.60
2019-04-16T05:18:22.133Z,40.60
2019-04-16T05:20:53.100Z,40.70
2019-04-16T05:23:26.074Z,40.20
2019-04-16T05:25:57.537Z,40.40
2019-04-16T05:28:28.442Z,38.30
2019-04-16T05:30:59.366Z,38.80
2019-04-16T05:33:30.337Z,39.40
2019-04-16T05:36:00.962Z,39.20
2019-04-16T05:38:32.224Z,39.30
2019-04-16T05:41:13.101Z,39.10
2019-04-16T05:43:35.197Z,38.00
2019-04-16T05:46:08.724Z,39.00
2019-04-16T05:48:39.605Z,38.50
2019-04-16T05:51:10.563Z,39.70
2019-04-16T05:53:42.583Z,39.40
2019-04-16T05:56:14.942Z,39.50
2019-04-16T05:58:45.863Z,39.00
2019-04-16T06:01:18.231Z,38.80
2019-04-16T06:03:52.997Z,38.90
2019-04-16T06:06:22.217Z,37.30
2019-04-16T06:08:56.026Z,37.70
2019-04-16T06:11:29.196Z,38.30
2019-04-16T06:14:01.869Z,38.30
2019-04-16T06:16:34.262Z,38.10
2019-04-16T06:19:08.487Z,38.30
2019-04-16T06:21:40.117Z,38.00
2019-04-16T06:24:12.398Z,38.50
2019-04-16T06:26:47.508Z,37.80
2019-04-16T06:29:18.230Z,39.50
2019-04-16T06:31:50.296Z,39.20
2019-04-16T06:34:24.336Z,39.70
2019-04-16T06:36:56.385Z,38.30
2019-04-16T06:39:30.017Z,37.30
2019-04-16T06:42:02.583Z,38.10
2019-04-16T06:44:35.072Z,38.60
2019-04-16T06:47:10.827Z,37.90
2019-04-16T06:49:40.030Z,38.40
2019-04-16T06:52:15.809Z,39.50
2019-04-16T06:54:45.462Z,39.80
2019-04-16T06:57:17.585Z,39.40
2019-04-16T06:59:49.923Z,39.60
2019-04-16T07:02:24.383Z,39.40
2019-04-16T07:04:55.030Z,39.00
2019-04-16T07:07:38.559Z,40.10
2019-04-16T07:10:00.939Z,39.40
2019-04-16T07:12:32.032Z,38.80
2019-04-16T07:15:02.876Z,37.70
2019-04-16T07:17:34.505Z,38.40
2019-04-16T07:20:06.936Z,37.10
2019-04-16T07:22:39.031Z,37.50
2019-04-16T07:25:10.452Z,37.20
2019-04-16T07:27:42.756Z,37.30
2019-04-16T07:30:20.029Z,37.20
2019-04-16T07:32:50.188Z,37.60
2019-04-16T07:35:22.692Z,37.80
2019-04-16T07:37:56.311Z,38.20
2019-04-16T07:40:40.904Z,38.50
2019-04-16T07:43:15.755Z,38.40
2019-04-16T07:45:46.821Z,37.90
2019-04-16T07:48:22.777Z,36.60
2019-04-16T07:50:53.323Z,38.10
2019-04-16T07:53:28.273Z,37.40
2019-04-16T07:56:00.698Z,36.50
2019-04-16T07:58:31.604Z,36.60
2019-04-16T08:01:02.467Z,37.20
2019-04-16T08:03:33.665Z,37.60
2019-04-16T08:06:04.617Z,37.50
2019-04-16T08:08:35.710Z,38.70
2019-04-16T08:11:06.539Z,37.80
2019-04-16T08:13:38.859Z,38.00
2019-04-16T08:16:09.886Z,37.20
2019-04-16T08:18:42.130Z,38.10
2019-04-16T08:21:12.849Z,37.20
2019-04-16T08:23:45.037Z,38.40
2019-04-16T08:26:16.281Z,38.60
2019-04-16T08:28:48.149Z,37.60
2019-04-16T08:31:20.370Z,37.40
2019-04-16T08:33:51.175Z,37.60
2019-04-16T08:36:22.307Z,39.40
2019-04-16T08:38:53.451Z,38.70
2019-04-16T08:41:24.700Z,38.60
2019-04-16T08:43:55.668Z,37.00
2019-04-16T08:46:28.158Z,35.30
2019-04-16T08:48:59.840Z,36.70
2019-04-16T08:51:34.388Z,35.90
2019-04-16T08:54:02.975Z,33.80
2019-04-16T08:56:34.419Z,34.60
2019-04-16T08:59:09.480Z,34.10
2019-04-16T09:01:37.647Z,34.70
2019-04-16T09:04:08.519Z,35.40
2019-04-16T09:06:42.589Z,35.20
2019-04-16T09:09:18.300Z,34.50
2019-04-16T09:11:48.598Z,35.20
2019-04-16T09:14:20.868Z,36.10
2019-04-16T09:16:52.016Z,35.50
2019-04-16T09:19:24.140Z,34.90
2019-04-16T09:21:55.250Z,35.50
2019-04-16T09:24:27.622Z,34.80
2019-04-16T09:27:00.012Z,35.80
2019-04-16T09:29:32.290Z,35.90
2019-04-16T09:32:03.081Z,36.50
2019-04-16T09:34:40.339Z,36.40
2019-04-16T09:37:12.649Z,37.30
2019-04-16T09:39:45.106Z,38.10
2019-04-16T09:42:16.085Z,36.90
2019-04-16T09:44:47.181Z,37.60
2019-04-16T09:47:18.532Z,37.30
2019-04-16T09:49:49.513Z,37.90
2019-04-16T09:52:23.010Z,38.10
2019-04-16T09:54:52.594Z,39.00
2019-04-16T09:57:30.881Z,37.90
2019-04-16T10:00:00.126Z,39.00
2019-04-16T10:02:32.423Z,39.70
2019-04-16T10:05:03.521Z,38.80
2019-04-16T10:07:37.456Z,38.70
2019-04-16T10:10:07.972Z,39.00
2019-04-16T10:12:39.149Z,39.00
2019-04-16T10:15:10.570Z,38.80
2019-04-16T10:17:41.422Z,39.10
2019-04-16T10:20:12.777Z,39.20
2019-04-16T10:22:43.530Z,40.00
2019-04-16T10:25:17.879Z,39.50
2019-04-16T10:27:50.042Z,40.70
2019-04-16T10:30:22.605Z,40.30
2019-04-16T10:32:53.704Z,41.10
2019-04-16T10:35:24.662Z,41.30
2019-04-16T10:37:55.792Z,41.30
2019-04-16T10:40:28.053Z,41.20
2019-04-16T10:43:00.636Z,41.70
2019-04-16T10:45:32.849Z,41.40
2019-04-16T10:48:05.844Z,40.80
2019-04-16T10:50:37.338Z,41.00
2019-04-16T10:53:09.939Z,41.30
2019-04-16T10:55:41.411Z,41.20
2019-04-16T10:58:13.430Z,41.80
2019-04-16T11:00:45.866Z,41.00
2019-04-16T11:03:18.156Z,40.90
2019-04-16T11:05:50.453Z,41.10
2019-04-16T11:08:21.687Z,41.30
2019-04-16T11:10:52.531Z,42.20
2019-04-16T11:13:25.102Z,42.20
2019-04-16T11:15:57.770Z,42.40
2019-04-16T11:18:28.812Z,42.40
2019-04-16T11:20:59.690Z,42.00
2019-04-16T11:23:31.338Z,42.20
2019-04-16T11:26:02.709Z,43.80
2019-04-16T11:28:33.549Z,44.30
2019-04-16T11:31:06.121Z,44.60
2019-04-16T11:33:36.711Z,45.00
2019-04-16T11:36:18.932Z,45.20
2019-04-16T11:38:39.950Z,44.70
2019-04-16T11:41:11.213Z,45.20
2019-04-16T11:43:42.033Z,45.50
2019-04-16T11:46:13.068Z,45.80
2019-04-16T11:48:44.068Z,45.80
2019-04-16T11:51:15.096Z,46.50
2019-04-16T11:53:46.248Z,46.10
2019-04-16T11:56:17.301Z,46.30
2019-04-16T11:58:48.292Z,46.40
2019-04-16T12:01:23.011Z,45.70
2019-04-16T12:03:56.328Z,45.30
2019-04-16T12:06:28.861Z,45.10
2019-04-16T12:08:59.755Z,45.20
2019-04-16T12:11:31.956Z,45.80
2019-04-16T12:14:08.689Z,45.40
2019-04-16T12:16:38.215Z,45.60
2019-04-16T12:19:10.567Z,45.80
2019-04-16T12:21:42.756Z,45.90
2019-04-16T12:24:18.416Z,46.10
2019-04-16T12:26:48.642Z,47.80
2019-04-16T12:29:23.137Z,48.40
2019-04-16T12:31:54.695Z,48.20
2019-04-16T12:34:26.841Z,47.60
2019-04-16T12:36:59.614Z,47.20
2019-04-16T12:39:35.565Z,47.00
2019-04-16T12:42:06.292Z,47.50
2019-04-16T12:44:45.513Z,47.00
2019-04-16T12:47:13.417Z,48.20
2019-04-16T12:49:45.621Z,49.30
2019-04-16T12:52:17.816Z,48.50
2019-04-16T12:54:58.334Z,48.10
2019-04-16T12:57:26.321Z,47.90
2019-04-16T12:59:58.714Z,47.80
2019-04-16T13:02:31.561Z,47.00
2019-04-16T13:05:04.886Z,47.00
2019-04-16T13:07:39.042Z,47.30
2019-04-16T13:10:11.583Z,47.50
2019-04-16T13:12:43.778Z,47.60
2019-04-16T13:15:16.488Z,47.40
2019-04-16T13:17:50.828Z,47.70
2019-04-16T13:20:22.188Z,47.90
2019-04-16T13:22:54.372Z,48.20
2019-04-16T13:25:27.008Z,48.20
2019-04-16T13:27:58.419Z,48.20
2019-04-16T13:30:29.483Z,48.00
2019-04-16T13:33:00.355Z,48.10
2019-04-16T13:35:31.126Z,48.50
2019-04-16T13:38:02.393Z,48.40
2019-04-16T13:40:33.608Z,48.40
2019-04-16T13:43:06.674Z,48.30
2019-04-16T13:45:40.015Z,47.90
2019-04-16T13:48:16.584Z,47.70
2019-04-16T13:50:46.396Z,47.50
2019-04-16T13:53:18.371Z,47.50
2019-04-16T13:55:50.666Z,47.90
2019-04-16T13:58:22.741Z,47.80
2019-04-16T14:00:54.881Z,47.70
2019-04-16T14:03:25.843Z,48.60
2019-04-16T14:05:56.793Z,48.00
2019-04-16T14:08:27.858Z,48.20
2019-04-16T14:10:59.295Z,48.20
2019-04-16T14:13:30.052Z,49.30
2019-04-16T14:16:00.850Z,49.50
2019-04-16T14:18:32.760Z,49.10
2019-04-16T14:21:04.186Z,48.80
2019-04-16T14:23:35.037Z,49.10
2019-04-16T14:26:06.771Z,50.10
2019-04-16T14:28:51.258Z,49.50
2019-04-16T14:31:09.736Z,49.30
2019-04-16T14:33:42.219Z,49.60
2019-04-16T14:36:14.379Z,49.10
2019-04-16T14:38:47.086Z,49.40
2019-04-16T14:41:19.666Z,49.80
2019-04-16T14:43:52.567Z,49.90
2019-04-16T14:46:28.254Z,49.30
2019-04-16T14:48:56.051Z,49.30
2019-04-16T14:51:27.415Z,49.40
2019-04-16T14:53:59.936Z,49.50
2019-04-16T14:56:32.231Z,50.20
2019-04-16T14:59:04.517Z,50.00
2019-04-16T15:01:37.334Z,49.90
2019-04-16T15:04:10.392Z,49.70
2019-04-16T15:06:42.677Z,49.50
2019-04-16T15:09:15.581Z,49.50
2019-04-16T15:11:47.922Z,49.90
2019-04-16T15:14:23.473Z,49.90
2019-04-16T15:16:52.592Z,50.40
2019-04-16T15:19:25.076Z,50.20
2019-04-16T15:21:57.735Z,50.20
2019-04-16T15:24:30.044Z,50.00
2019-04-16T15:27:02.268Z,50.10
2019-04-16T15:29:35.197Z,50.30
2019-04-16T15:32:07.711Z,50.40
2019-04-16T15:34:43.033Z,50.80
2019-04-16T15:37:13.794Z,51.20
2019-04-16T15:39:47.031Z,50.80
2019-04-16T15:42:18.196Z,50.70
2019-04-16T15:44:52.728Z,50.60
2019-04-16T15:47:22.829Z,50.40
2019-04-16T15:49:55.937Z,50.40
2019-04-16T15:52:27.455Z,50.50
2019-04-16T15:55:00.017Z,50.50
2019-04-16T15:57:32.542Z,50.40
2019-04-16T16:00:04.984Z,50.30
2019-04-16T16:02:37.662Z,50.30
2019-04-16T16:05:10.637Z,50.30
2019-04-16T16:07:42.919Z,50.10
2019-04-16T16:10:15.239Z,50.00
2019-04-16T16:12:46.608Z,50.00
2019-04-16T16:15:17.906Z,50.50
2019-04-16T16:17:48.806Z,50.90
2019-04-16T16:20:20.338Z,50.70
2019-04-16T16:22:51.290Z,51.20
2019-04-16T16:25:22.570Z,50.70
2019-04-16T16:27:54.184Z,50.90
2019-04-16T16:30:25.399Z,50.70
2019-04-16T16:32:56.779Z,50.70
2019-04-16T16:35:27.819Z,50.80
2019-04-16T16:37:59.237Z,50.90
2019-04-16T16:40:30.436Z,50.90
2019-04-16T16:43:06.940Z,50.90
2019-04-16T16:45:35.422Z,51.00
2019-04-16T16:48:06.584Z,51.10
2019-04-16T16:50:37.354Z,51.10
2019-04-16T16:53:10.412Z,51.30
2019-04-16T16:55:42.393Z,51.30
2019-04-16T16:58:17.909Z,51.20
2019-04-16T17:00:48.585Z,51.20
2019-04-16T17:03:19.944Z,51.30
2019-04-16T17:05:52.235Z,51.30
2019-04-16T17:08:23.202Z,51.40
2019-04-16T17:10:54.121Z,52.40
2019-04-16T17:13:24.895Z,52.60
2019-04-16T17:15:55.788Z,52.10
2019-04-16T17:18:26.808Z,51.90
2019-04-16T17:21:00.989Z,51.80
2019-04-16T17:23:31.862Z,51.90
2019-04-16T17:26:02.812Z,52.40
2019-04-16T17:28:33.825Z,52.50
2019-04-16T17:31:04.549Z,52.80
2019-04-16T17:33:35.342Z,52.70
2019-04-16T17:36:06.746Z,52.90
2019-04-16T17:38:37.778Z,53.00
2019-04-16T17:41:10.075Z,53.10
2019-04-16T17:43:42.536Z,53.30
2019-04-16T17:46:14.658Z,53.50
2019-04-16T17:48:46.938Z,54.00
2019-04-16T17:51:17.643Z,54.30
2019-04-16T17:53:49.869Z,54.70
2019-04-16T17:56:22.153Z,54.90
2019-04-16T17:58:54.313Z,55.00
2019-04-16T18:01:26.580Z,55.30
2019-04-16T18:03:59.108Z,55.60
2019-04-16T18:06:31.512Z,55.70
2019-04-16T18:09:01.886Z,55.90
2019-04-16T18:11:34.277Z,56.20
2019-04-16T18:14:10.770Z,56.60
2019-04-16T18:16:40.329Z,56.80
2019-04-16T18:19:11.081Z,57.00
2019-04-16T18:21:42.035Z,57.30
2019-04-16T18:24:14.199Z,57.60
2019-04-16T18:26:46.420Z,57.70
2019-04-16T18:29:18.808Z,57.80
2019-04-16T18:31:52.499Z,58.00
2019-04-16T18:34:24.523Z,58.10
2019-04-16T18:36:56.707Z,58.20
2019-04-16T18:39:29.089Z,58.20
2019-04-16T18:42:01.830Z,58.20
2019-04-16T18:44:32.278Z,58.70
2019-04-16T18:47:05.483Z,58.50
2019-04-16T18:49:38.414Z,58.90
2019-04-16T18:52:09.280Z,58.80
2019-04-16T18:54:40.478Z,59.10
2019-04-16T18:57:11.554Z,59.10
2019-04-16T18:59:42.492Z,59.10
2019-04-16T19:02:13.200Z,59.10
2019-04-16T19:04:44.339Z,59.10
2019-04-16T19:07:15.252Z,59.40
2019-04-16T19:09:45.921Z,59.20
2019-04-16T19:12:16.858Z,59.40
2019-04-16T19:14:47.824Z,59.40
2019-04-16T19:17:18.430Z,59.50
2019-04-16T19:19:49.249Z,59.60
2019-04-16T19:22:20.050Z,59.80
2019-04-16T19:24:50.863Z,59.80
2019-04-16T19:27:21.854Z,59.90
2019-04-16T19:29:52.755Z,60.00
2019-04-16T19:32:24.752Z,59.80
2019-04-16T19:35:08.194Z,60.20
2019-04-16T19:37:29.764Z,60.50
2019-04-16T19:40:00.504Z,60.60
2019-04-16T19:42:31.526Z,61.00
2019-04-16T19:45:02.461Z,61.20
2019-04-16T19:47:35.262Z,60.70
2019-04-16T19:50:07.336Z,61.00
2019-04-16T19:52:38.303Z,60.90
2019-04-16T19:55:12.465Z,61.40
2019-04-16T19:57:42.566Z,60.60
2019-04-16T20:00:13.745Z,60.60
2019-04-16T20:02:44.530Z,60.60
2019-04-16T20:05:18.498Z,60.70
2019-04-16T20:07:48.260Z,60.90
2019-04-16T20:10:18.945Z,61.70
2019-04-16T20:12:49.775Z,61.40
2019-04-16T20:15:20.896Z,61.10
2019-04-16T20:17:51.836Z,61.40
2019-04-16T20:20:23.000Z,61.30
2019-04-16T20:22:53.701Z,61.70
2019-04-16T20:25:24.593Z,61.90
2019-04-16T20:27:55.605Z,61.30
2019-04-16T20:30:26.620Z,61.50
2019-04-16T20:32:57.511Z,61.70
2019-04-16T20:35:28.830Z,61.70
2019-04-16T20:37:59.590Z,61.70
2019-04-16T20:40:30.379Z,62.00
2019-04-16T20:43:02.617Z,61.80
2019-04-16T20:45:33.467Z,62.20
2019-04-16T20:48:04.640Z,62.30
2019-04-16T20:50:35.780Z,62.30
2019-04-16T20:53:08.368Z,61.70
2019-04-16T20:55:38.801Z,61.90
2019-04-16T20:58:10.020Z,61.90
2019-04-16T21:00:42.473Z,61.70
2019-04-16T21:03:21.903Z,61.80
2019-04-16T21:05:57.856Z,61.80
2019-04-16T21:08:24.386Z,61.80
2019-04-16T21:10:50.932Z,61.80
2019-04-16T21:13:21.634Z,61.80
2019-04-16T21:15:52.928Z,61.80
2019-04-16T21:18:23.721Z,61.80
2019-04-16T21:20:54.553Z,61.80
2019-04-16T21:23:25.273Z,62.10
2019-04-16T21:25:56.245Z,62.40
2019-04-16T21:28:28.358Z,62.50
2019-04-16T21:31:00.642Z,62.30
2019-04-16T21:33:32.866Z,62.30
2019-04-16T21:36:05.586Z,62.00
2019-04-16T21:38:37.719Z,62.10
2019-04-16T21:41:08.553Z,62.20
2019-04-16T21:43:40.329Z,62.40
2019-04-16T21:46:11.621Z,63.00
2019-04-16T21:48:42.357Z,62.60
2019-04-16T21:51:13.458Z,62.70
2019-04-16T21:53:44.287Z,62.40
2019-04-16T21:56:14.987Z,63.00
2019-04-16T21:58:46.608Z,62.40
2019-04-16T22:01:19.185Z,62.30
2019-04-16T22:03:51.647Z,62.50
2019-04-16T22:06:22.768Z,63.00
2019-04-16T22:08:53.892Z,63.40
2019-04-16T22:11:24.721Z,62.90
2019-04-16T22:13:55.754Z,63.20
2019-04-16T22:16:29.724Z,63.40
2019-04-16T22:18:58.931Z,63.70
2019-04-16T22:21:30.111Z,64.10
2019-04-16T22:24:00.971Z,63.90
2019-04-16T22:26:34.166Z,63.90
2019-04-16T22:29:03.934Z,63.70
2019-04-16T22:31:34.922Z,63.60
2019-04-16T22:34:05.921Z,63.60
2019-04-16T22:36:37.052Z,63.80
2019-04-16T22:39:10.272Z,64.80
2019-04-16T22:41:42.622Z,65.10
2019-04-16T22:44:14.995Z,65.40
2019-04-16T22:46:46.986Z,65.20
2019-04-16T22:49:18.579Z,65.50
2019-04-16T22:51:49.966Z,65.40
2019-04-16T22:54:21.572Z,65.60
2019-04-16T22:56:53.862Z,65.50
2019-04-16T22:59:25.027Z,65.60
2019-04-16T23:01:56.326Z,65.90
2019-04-16T23:04:27.492Z,66.00
2019-04-16T23:06:58.601Z,66.20
2019-04-16T23:09:30.650Z,66.80
2019-04-16T23:12:03.990Z,66.10
2019-04-16T23:14:38.635Z,66.70
2019-04-16T23:17:13.175Z,66.70
2019-04-16T23:19:41.731Z,66.40
2019-04-16T23:22:15.261Z,66.90
2019-04-16T23:24:44.829Z,66.60
2019-04-16T23:27:15.816Z,66.90
2019-04-16T23:29:47.540Z,67.00
2019-04-16T23:32:19.065Z,66.80
2019-04-16T23:34:53.080Z,66.60
2019-04-16T23:37:24.312Z,66.90
2019-04-16T23:39:55.471Z,67.10
2019-04-16T23:42:26.058Z,66.50
2019-04-16T23:45:00.173Z,66.50
2019-04-16T23:47:31.362Z,66.30
2019-04-16T23:50:03.692Z,67.20
2019-04-16T23:52:35.886Z,66.20
2019-04-16T23:55:08.908Z,66.80
2019-04-16T23:57:41.094Z,65.50
